Time;durP1;ratioP1;P1;durP2;ratioP2;P2;SDS_P1;SDS_P2;PMS_P1;PMS_P2;Temp;Humidity;BMP_temperature;BMP_pressure;BME280_temperature;BME280_humidity;BME280_pressure;Samples;Min_cycle;Max_cycle;Signal;HPM_P1;HPM_P2
2022/05/20 00:00:30;;;;;;;5.30;4.00;;;19.40;99.90;;;;;;5070106;28;20462;-78
2022/05/20 00:03:17;;;;;;;4.80;3.87;;;19.30;99.90;;;;;;5062040;28;20485;-78
2022/05/20 00:06:03;;;;;;;7.33;3.90;;;19.20;99.90;;;;;;5066612;28;20462;-77
2022/05/20 00:08:49;;;;;;;5.13;3.80;;;19.10;99.90;;;;;;5051660;28;20547;-78
2022/05/20 00:11:37;;;;;;;8.20;3.97;;;19.10;99.90;;;;;;5061034;28;20459;-78
2022/05/20 00:14:22;;;;;;;9.67;4.50;;;19.00;99.90;;;;;;5068884;28;20537;-78
2022/05/20 00:17:08;;;;;;;6.73;4.17;;;19.00;99.90;;;;;;5060357;28;20547;-77
2022/05/20 00:19:54;;;;;;;6.27;4.13;;;19.00;99.90;;;;;;5068512;28;20450;-77
2022/05/20 00:22:39;;;;;;;4.40;3.60;;;19.10;99.90;;;;;;5061385;28;20888;-78
2022/05/20 00:28:30;;;;;;;6.27;4.57;;;19.10;99.90;;;;;;5063908;28;20457;-78
2022/05/20 00:31:17;;;;;;;7.53;4.33;;;19.00;99.90;;;;;;5071253;28;20442;-78
2022/05/20 00:34:03;;;;;;;13.83;4.37;;;18.90;99.90;;;;;;5068874;28;20454;-78
2022/05/20 00:36:48;;;;;;;6.00;4.00;;;18.80;99.90;;;;;;5063882;28;20467;-78
2022/05/20 00:39:34;;;;;;;5.83;4.13;;;18.80;99.90;;;;;;5059213;28;20455;-78
2022/05/20 00:42:20;;;;;;;5.20;3.93;;;18.70;99.90;;;;;;5085105;28;20446;-77
2022/05/20 00:45:09;;;;;;;7.33;4.77;;;18.70;99.90;;;;;;5082469;28;20445;-78
2022/05/20 00:47:56;;;;;;;5.00;4.50;;;18.90;99.90;;;;;;5069951;28;20494;-78
2022/05/20 00:50:45;;;;;;;10.73;4.27;;;18.90;99.90;;;;;;5068079;28;20487;-78
2022/05/20 00:53:36;;;;;;;7.77;4.30;;;19.00;99.90;;;;;;5073291;28;20438;-78
2022/05/20 00:56:25;;;;;;;4.87;4.37;;;18.90;99.90;;;;;;5063267;28;20483;-77
2022/05/20 00:59:17;;;;;;;6.20;4.13;;;18.90;99.90;;;;;;5073570;28;20442;-78
2022/05/20 01:02:09;;;;;;;5.30;4.70;;;18.90;99.90;;;;;;5079391;28;20446;-78
2022/05/20 01:04:59;;;;;;;9.33;4.17;;;19.00;99.90;;;;;;5063019;28;20439;-78
2022/05/20 01:07:45;;;;;;;8.53;3.97;;;19.00;99.90;;;;;;5059522;28;20498;-77
2022/05/20 01:10:31;;;;;;;5.27;4.10;;;19.10;99.90;;;;;;5067969;28;20447;-78
2022/05/20 01:13:19;;;;;;;14.53;4.33;;;19.00;99.90;;;;;;5068861;28;20446;-78
2022/05/20 01:16:11;;;;;;;10.60;4.60;;;19.10;99.90;;;;;;5064167;28;20531;-78
2022/05/20 01:18:59;;;;;;;14.80;5.57;;;19.10;99.90;;;;;;5060041;28;20448;-78
2022/05/20 01:21:44;;;;;;;19.40;5.70;;;19.20;99.90;;;;;;5066029;28;20594;-77
2022/05/20 01:24:31;;;;;;;9.90;4.73;;;19.20;99.90;;;;;;5078087;28;20445;-78
2022/05/20 01:27:17;;;;;;;10.73;4.83;;;19.20;99.90;;;;;;5074507;28;20466;-77
2022/05/20 01:30:03;;;;;;;7.90;4.50;;;19.10;99.90;;;;;;5078277;28;20466;-78
2022/05/20 01:32:49;;;;;;;13.50;5.10;;;18.90;99.90;;;;;;5073218;28;20479;-78
2022/05/20 01:35:38;;;;;;;6.30;4.70;;;19.00;99.90;;;;;;5076939;28;20469;-78
2022/05/20 01:38:24;;;;;;;8.40;5.00;;;19.00;99.90;;;;;;5067388;28;20467;-78
2022/05/20 01:41:13;;;;;;;7.23;5.33;;;19.00;99.90;;;;;;5083130;28;20502;-78
2022/05/20 01:44:08;;;;;;;9.90;4.20;;;19.00;99.90;;;;;;5078862;28;20467;-78
2022/05/20 01:46:59;;;;;;;8.87;5.10;;;19.00;99.90;;;;;;5065261;28;20571;-77
2022/05/20 01:49:52;;;;;;;13.20;4.20;;;19.00;99.90;;;;;;5080680;28;20447;-78
2022/05/20 01:52:43;;;;;;;11.10;5.53;;;19.00;99.90;;;;;;5075974;28;20467;-78
2022/05/20 01:55:37;;;;;;;6.50;4.97;;;19.00;99.90;;;;;;5074072;28;20506;-77
2022/05/20 01:58:33;;;;;;;7.73;5.00;;;19.10;99.90;;;;;;5074319;28;20819;-78
2022/05/20 02:01:23;;;;;;;13.43;4.27;;;19.20;99.90;;;;;;5078310;28;20448;-78
2022/05/20 02:04:13;;;;;;;6.13;4.83;;;19.10;99.90;;;;;;5073209;28;20431;-78
2022/05/20 02:07:04;;;;;;;8.40;4.97;;;19.10;99.90;;;;;;5068391;28;20454;-77
2022/05/20 02:09:56;;;;;;;8.43;5.00;;;19.00;99.90;;;;;;5060728;28;20443;-77
2022/05/20 02:12:47;;;;;;;8.80;5.53;;;18.80;99.90;;;;;;5056914;28;20448;-78
2022/05/20 02:15:39;;;;;;;8.03;5.97;;;18.80;99.90;;;;;;5052458;28;20547;-77
2022/05/20 02:18:28;;;;;;;8.20;4.80;;;18.90;99.90;;;;;;5060570;28;20832;-77
2022/05/20 02:21:17;;;;;;;13.43;4.53;;;18.90;99.90;;;;;;5057920;28;20569;-78
2022/05/20 02:24:08;;;;;;;9.63;5.30;;;19.00;99.90;;;;;;5066461;28;20446;-78
2022/05/20 02:26:57;;;;;;;6.70;4.70;;;19.00;99.90;;;;;;5043474;28;20543;-78
2022/05/20 02:29:48;;;;;;;6.77;5.00;;;19.00;99.90;;;;;;5057174;28;20453;-77
2022/05/20 02:32:44;;;;;;;9.40;5.30;;;19.00;99.90;;;;;;5056251;28;20446;-77
2022/05/20 02:35:30;;;;;;;9.80;5.53;;;19.00;99.90;;;;;;5053626;28;20467;-76
2022/05/20 02:38:18;;;;;;;16.03;6.17;;;19.00;99.90;;;;;;5064500;28;20453;-77
2022/05/20 02:41:04;;;;;;;8.13;5.30;;;19.10;99.90;;;;;;5055453;28;20448;-77
2022/05/20 02:43:50;;;;;;;8.30;5.30;;;19.10;99.90;;;;;;5055220;28;20457;-77
2022/05/20 02:46:36;;;;;;;18.67;5.67;;;19.00;99.90;;;;;;5051410;28;20999;-77
2022/05/20 02:49:23;;;;;;;10.57;5.93;;;18.90;99.90;;;;;;5056932;28;20439;-76
2022/05/20 02:52:09;;;;;;;9.93;5.90;;;18.80;99.90;;;;;;5060981;28;21085;-79
2022/05/20 02:54:55;;;;;;;8.83;5.60;;;18.70;99.90;;;;;;5053030;28;20989;-77
2022/05/20 02:57:42;;;;;;;5.90;4.87;;;18.70;99.90;;;;;;5051521;28;21004;-77
2022/05/20 03:06:36;;;;;;;8.73;6.47;;;18.60;99.90;;;;;;5058354;28;20519;-77
2022/05/20 03:09:24;;;;;;;8.13;6.20;;;18.60;99.90;;;;;;5060704;28;20536;-78
2022/05/20 03:12:13;;;;;;;8.13;6.13;;;18.60;99.90;;;;;;5058124;28;20448;-77
2022/05/20 03:14:58;;;;;;;7.03;6.13;;;18.60;99.90;;;;;;5051511;28;20813;-78
2022/05/20 03:17:45;;;;;;;7.87;6.30;;;18.60;99.90;;;;;;5054147;28;20463;-79
2022/05/20 03:20:31;;;;;;;13.70;5.93;;;18.50;99.90;;;;;;5055518;28;20443;-78
2022/05/20 03:23:18;;;;;;;11.83;6.50;;;18.50;99.90;;;;;;5063684;28;20451;-78
2022/05/20 03:26:04;;;;;;;10.30;5.47;;;18.60;99.90;;;;;;5049996;28;20522;-76
2022/05/20 03:28:49;;;;;;;7.13;5.10;;;18.60;99.90;;;;;;5062555;28;20527;-78
2022/05/20 03:31:38;;;;;;;7.03;5.90;;;18.70;99.90;;;;;;5046863;28;20490;-77
2022/05/20 03:34:23;;;;;;;11.47;5.67;;;18.70;99.90;;;;;;5053497;28;20455;-77
2022/05/20 03:37:10;;;;;;;10.47;5.67;;;18.70;99.90;;;;;;5060998;28;20478;-78
2022/05/20 03:39:57;;;;;;;5.80;5.23;;;18.70;99.90;;;;;;5054709;28;20452;-78
2022/05/20 03:42:43;;;;;;;6.30;5.27;;;18.60;99.90;;;;;;5061700;28;20459;-78
2022/05/20 03:45:28;;;;;;;5.73;5.00;;;18.80;99.90;;;;;;5047208;28;20484;-77
2022/05/20 03:48:14;;;;;;;13.03;4.67;;;18.80;99.90;;;;;;5062282;28;20521;-78
2022/05/20 03:51:08;;;;;;;15.27;5.63;;;18.80;99.90;;;;;;5055102;28;20459;-78
2022/05/20 03:53:54;;;;;;;10.67;5.93;;;18.80;99.90;;;;;;5049741;28;20741;-77
2022/05/20 03:56:41;;;;;;;5.93;4.73;;;18.80;99.90;;;;;;5050584;28;20498;-77
2022/05/20 03:59:27;;;;;;;14.20;6.00;;;18.70;99.90;;;;;;5057978;28;20496;-78
2022/05/20 04:02:14;;;;;;;13.17;6.20;;;18.60;99.90;;;;;;5061733;28;20966;-78
2022/05/20 04:04:59;;;;;;;7.93;6.23;;;18.60;99.90;;;;;;5052279;28;20847;-77
2022/05/20 04:07:45;;;;;;;6.93;5.80;;;18.60;99.90;;;;;;5051585;28;20463;-77
2022/05/20 04:10:31;;;;;;;5.63;4.87;;;18.70;99.90;;;;;;5057924;28;20510;-77
2022/05/20 04:13:21;;;;;;;8.30;5.17;;;18.70;99.90;;;;;;5061168;28;20462;-78
2022/05/20 04:16:06;;;;;;;8.17;5.60;;;18.70;99.90;;;;;;5053257;28;20606;-78
2022/05/20 04:18:52;;;;;;;10.30;4.90;;;18.80;99.90;;;;;;5055879;28;20455;-78
2022/05/20 04:21:38;;;;;;;11.50;4.33;;;18.80;99.90;;;;;;5054766;28;20437;-78
2022/05/20 04:24:24;;;;;;;6.30;4.23;;;18.80;99.90;;;;;;5050974;28;20443;-78
2022/05/20 04:27:10;;;;;;;5.60;4.93;;;18.80;99.90;;;;;;5053060;28;20598;-78
2022/05/20 04:29:59;;;;;;;11.83;5.23;;;18.80;99.90;;;;;;5054031;28;20590;-78
2022/05/20 04:32:44;;;;;;;12.33;5.47;;;18.70;99.90;;;;;;5056055;28;20456;-77
2022/05/20 04:35:30;;;;;;;7.83;5.70;;;18.60;99.90;;;;;;5045952;28;20513;-78
2022/05/20 04:38:16;;;;;;;6.00;5.40;;;18.60;99.90;;;;;;5055978;28;20452;-78
2022/05/20 04:47:18;;;;;;;11.40;6.20;;;18.60;99.90;;;;;;5055294;28;21046;-77
2022/05/20 04:50:06;;;;;;;7.37;5.43;;;18.60;99.90;;;;;;5052350;28;20427;-76
2022/05/20 04:52:51;;;;;;;8.37;4.93;;;18.70;99.90;;;;;;5049596;28;20454;-78
2022/05/20 04:55:36;;;;;;;6.20;5.30;;;18.80;99.90;;;;;;5056894;28;20477;-77
2022/05/20 04:58:22;;;;;;;7.17;6.47;;;18.80;99.90;;;;;;5053634;28;20482;-78
2022/05/20 05:01:07;;;;;;;8.70;5.87;;;18.90;99.90;;;;;;5056142;28;20574;-77
2022/05/20 05:03:54;;;;;;;9.47;7.50;;;19.00;99.90;;;;;;5048766;28;20447;-78
2022/05/20 05:06:40;;;;;;;10.53;6.00;;;19.00;99.90;;;;;;5050962;28;20504;-77
2022/05/20 05:09:26;;;;;;;6.60;5.00;;;19.00;99.90;;;;;;5059679;28;20443;-78
2022/05/20 05:12:13;;;;;;;7.67;5.40;;;19.10;99.90;;;;;;5059337;28;20915;-79
2022/05/20 05:14:59;;;;;;;8.33;5.77;;;18.90;99.90;;;;;;5054349;28;20578;-78
2022/05/20 05:20:51;;;;;;;5.47;4.83;;;19.00;99.90;;;;;;5047357;28;20482;-78
2022/05/20 05:23:37;;;;;;;7.27;5.80;;;19.10;99.90;;;;;;5049239;28;20538;-77
2022/05/20 05:26:24;;;;;;;7.00;5.47;;;19.10;99.90;;;;;;5061740;28;20481;-78
2022/05/20 05:29:11;;;;;;;7.17;5.40;;;19.20;99.90;;;;;;5060852;28;20553;-78
2022/05/20 05:31:57;;;;;;;9.90;5.83;;;19.20;99.90;;;;;;5057301;28;20451;-78
2022/05/20 05:34:43;;;;;;;9.83;5.60;;;19.30;99.90;;;;;;5052211;28;20450;-78
2022/05/20 05:37:33;;;;;;;6.53;5.63;;;19.40;99.90;;;;;;5058283;28;20540;-78
2022/05/20 05:40:21;;;;;;;8.27;6.10;;;19.50;99.90;;;;;;5062523;28;20585;-78
2022/05/20 05:43:07;;;;;;;6.50;5.90;;;19.60;99.90;;;;;;5057226;28;20498;-77
2022/05/20 05:45:52;;;;;;;7.17;5.90;;;19.70;99.90;;;;;;5059220;28;20521;-78
2022/05/20 05:48:38;;;;;;;7.67;5.30;;;19.80;99.90;;;;;;5059883;28;20896;-78
2022/05/20 05:51:24;;;;;;;8.63;5.70;;;19.80;99.90;;;;;;5064934;28;20500;-78
2022/05/20 05:54:11;;;;;;;8.00;7.00;;;19.90;99.90;;;;;;5050564;28;20443;-78
2022/05/20 05:56:57;;;;;;;8.57;7.50;;;20.10;99.90;;;;;;5065580;28;20524;-78
2022/05/20 05:59:43;;;;;;;12.83;7.10;;;20.10;99.90;;;;;;5062657;28;20447;-78
2022/05/20 06:02:29;;;;;;;10.47;6.70;;;20.30;99.90;;;;;;5058187;28;20451;-78
2022/05/20 06:05:15;;;;;;;9.20;7.73;;;20.40;99.90;;;;;;5054288;28;20498;-78
2022/05/20 06:08:01;;;;;;;15.33;7.60;;;20.50;99.90;;;;;;5056667;28;20471;-78
2022/05/20 06:10:48;;;;;;;8.70;7.27;;;20.60;99.90;;;;;;5067585;28;20447;-77
2022/05/20 06:13:34;;;;;;;12.47;7.20;;;20.60;99.90;;;;;;5051395;28;20943;-77
2022/05/20 06:16:21;;;;;;;7.23;5.97;;;20.60;99.90;;;;;;5061019;28;20490;-78
2022/05/20 06:19:07;;;;;;;10.20;7.57;;;20.60;99.90;;;;;;5061528;28;20451;-77
2022/05/20 06:21:53;;;;;;;9.40;7.40;;;20.60;99.90;;;;;;5056701;28;20466;-77
2022/05/20 06:24:38;;;;;;;13.50;6.90;;;20.70;99.90;;;;;;5056987;28;20450;-79
2022/05/20 06:27:26;;;;;;;7.50;6.17;;;20.80;99.90;;;;;;5057569;28;20459;-78
2022/05/20 06:30:14;;;;;;;9.53;6.67;;;20.80;99.90;;;;;;5059095;28;20479;-78
2022/05/20 06:33:01;;;;;;;12.37;7.40;;;20.80;99.90;;;;;;5048744;28;20954;-76
2022/05/20 06:41:54;;;;;;;9.93;6.60;;;21.00;99.90;;;;;;5056318;28;20486;-78
2022/05/20 06:44:42;;;;;;;13.93;7.10;;;21.10;99.90;;;;;;5057303;28;20525;-76
2022/05/20 06:47:27;;;;;;;12.60;6.50;;;21.30;99.90;;;;;;5058825;28;20545;-77
2022/05/20 06:50:14;;;;;;;13.00;6.33;;;21.40;99.90;;;;;;5059310;28;20489;-78
2022/05/20 06:52:59;;;;;;;9.90;5.77;;;21.50;99.90;;;;;;5054690;28;20493;-77
2022/05/20 06:55:45;;;;;;;10.90;5.90;;;21.60;99.90;;;;;;5057366;28;20481;-78
2022/05/20 06:58:32;;;;;;;7.80;6.43;;;21.70;99.90;;;;;;5059902;28;20809;-77
2022/05/20 07:01:19;;;;;;;8.50;5.23;;;21.80;99.90;;;;;;5055703;28;20447;-78
2022/05/20 07:04:05;;;;;;;10.90;6.37;;;21.90;99.90;;;;;;5058251;28;20443;-78
2022/05/20 07:06:51;;;;;;;9.93;6.13;;;22.10;99.90;;;;;;5056454;28;20571;-78
2022/05/20 07:09:37;;;;;;;7.77;5.37;;;22.10;99.90;;;;;;5059785;28;20584;-78
2022/05/20 07:12:23;;;;;;;8.90;5.70;;;22.20;99.90;;;;;;5050186;28;20811;-76
2022/05/20 07:15:10;;;;;;;8.23;5.33;;;22.30;99.90;;;;;;5059029;28;20486;-78
2022/05/20 07:17:56;;;;;;;8.10;6.47;;;22.30;99.90;;;;;;5053968;28;20613;-78
2022/05/20 07:20:43;;;;;;;8.87;5.90;;;22.40;99.90;;;;;;5059802;28;20506;-77
2022/05/20 07:23:31;;;;;;;8.97;5.53;;;22.50;99.90;;;;;;5053604;28;20481;-78
2022/05/20 07:26:17;;;;;;;12.53;5.53;;;22.50;99.90;;;;;;5060283;28;20503;-78
2022/05/20 07:29:04;;;;;;;10.40;6.47;;;22.50;99.90;;;;;;5057371;28;20570;-77
2022/05/20 07:31:49;;;;;;;7.67;6.20;;;22.50;99.90;;;;;;5054334;28;20453;-77
2022/05/20 07:34:36;;;;;;;7.63;6.07;;;22.50;99.90;;;;;;5035409;28;20413;-78
2022/05/20 07:37:22;;;;;;;6.87;6.17;;;22.60;99.90;;;;;;5051960;28;20489;-78
2022/05/20 07:40:09;;;;;;;9.10;5.90;;;22.70;99.90;;;;;;5058453;28;20455;-78
2022/05/20 07:42:55;;;;;;;7.20;5.93;;;22.60;99.90;;;;;;5051524;28;20667;-78
2022/05/20 07:45:41;;;;;;;7.17;5.27;;;22.90;99.90;;;;;;5054992;28;20443;-78
2022/05/20 07:48:27;;;;;;;9.27;6.57;;;22.90;99.90;;;;;;5059113;28;20481;-78
2022/05/20 07:51:18;;;;;;;7.50;6.70;;;23.00;99.90;;;;;;5053545;28;20607;-78
2022/05/20 07:54:07;;;;;;;6.87;5.80;;;23.00;99.90;;;;;;5056092;28;20562;-78
2022/05/20 07:57:01;;;;;;;8.60;5.57;;;23.10;99.90;;;;;;5054615;28;22101;-77
2022/05/20 07:59:50;;;;;;;7.20;6.10;;;23.20;99.90;;;;;;5057558;28;20443;-78
2022/05/20 08:02:36;;;;;;;14.90;7.03;;;23.20;99.90;;;;;;5054879;28;21083;-78
2022/05/20 08:05:22;;;;;;;10.60;7.40;;;23.20;99.90;;;;;;5060745;28;20541;-77
2022/05/20 08:08:10;;;;;;;10.90;5.77;;;23.30;99.90;;;;;;5059602;28;20891;-78
2022/05/20 08:10:56;;;;;;;8.73;6.70;;;23.40;99.90;;;;;;5051555;28;20447;-78
2022/05/20 08:13:42;;;;;;;8.53;6.40;;;23.60;99.90;;;;;;5059161;28;20452;-78
2022/05/20 08:16:28;;;;;;;7.83;6.20;;;23.70;99.90;;;;;;5057348;28;20474;-77
2022/05/20 08:19:14;;;;;;;8.83;6.30;;;23.90;99.90;;;;;;5055812;28;20834;-77
2022/05/20 08:21:59;;;;;;;9.10;6.73;;;24.00;99.90;;;;;;5046796;28;20458;-77
2022/05/20 08:24:46;;;;;;;7.77;6.50;;;24.10;99.90;;;;;;5057609;28;20442;-77
2022/05/20 08:27:33;;;;;;;8.13;6.67;;;24.10;99.90;;;;;;5057789;28;20461;-77
2022/05/20 08:30:22;;;;;;;9.43;5.53;;;24.20;99.90;;;;;;5055821;28;20446;-78
2022/05/20 08:33:08;;;;;;;9.80;7.30;;;24.30;99.90;;;;;;5050168;28;20459;-77
2022/05/20 08:35:53;;;;;;;14.83;6.53;;;24.40;99.90;;;;;;5051631;28;20519;-77
2022/05/20 08:38:40;;;;;;;7.20;5.37;;;24.40;99.90;;;;;;5056776;28;20615;-77
2022/05/20 08:41:30;;;;;;;12.00;6.40;;;24.50;99.90;;;;;;5047895;28;20443;-77
2022/05/20 08:44:20;;;;;;;8.20;6.40;;;24.70;99.90;;;;;;5061641;28;20970;-77
2022/05/20 08:47:20;;;;;;;7.30;5.67;;;24.80;99.90;;;;;;5055216;28;20486;-78
2022/05/20 08:50:12;;;;;;;14.87;6.10;;;24.90;99.90;;;;;;5051800;28;20591;-77
2022/05/20 08:52:58;;;;;;;8.70;5.53;;;25.00;99.90;;;;;;5054443;28;20493;-78
2022/05/20 08:55:44;;;;;;;10.60;6.50;;;25.10;99.90;;;;;;5052925;28;20491;-78
2022/05/20 08:58:31;;;;;;;15.10;6.10;;;25.10;99.90;;;;;;5036111;28;21032;-78
2022/05/20 09:01:27;;;;;;;9.43;5.40;;;25.20;99.90;;;;;;5059657;28;20585;-78
2022/05/20 09:04:16;;;;;;;12.10;5.40;;;25.20;99.90;;;;;;5056335;28;21437;-78
2022/05/20 09:07:05;;;;;;;11.90;4.50;;;25.20;99.90;;;;;;5057898;28;20490;-78
2022/05/20 09:09:53;;;;;;;8.80;4.60;;;25.30;99.90;;;;;;5055570;28;21079;-78
2022/05/20 09:12:41;;;;;;;13.63;5.37;;;25.50;99.90;;;;;;5054521;28;20883;-78
2022/05/20 09:15:46;;;;;;;12.73;5.70;;;25.50;99.90;;;;;;5058597;28;20462;-78
2022/05/20 09:18:36;;;;;;;7.87;4.53;;;25.50;99.90;;;;;;5059350;28;20881;-79
2022/05/20 09:21:29;;;;;;;7.47;4.73;;;25.60;99.90;;;;;;5054208;28;20522;-79
2022/05/20 09:24:18;;;;;;;10.47;5.20;;;25.70;99.50;;;;;;5064498;28;20586;-78
2022/05/20 09:27:06;;;;;;;14.73;4.30;;;25.80;99.90;;;;;;5062392;28;20483;-78
2022/05/20 09:29:57;;;;;;;11.67;7.43;;;25.90;95.70;;;;;;5052546;28;20848;-78
2022/05/20 09:33:00;;;;;;;10.37;5.63;;;25.90;99.50;;;;;;5055412;28;20826;-78
2022/05/20 09:35:52;;;;;;;10.93;5.70;;;26.00;92.60;;;;;;5054267;28;20577;-78
2022/05/20 09:38:40;;;;;;;14.40;5.10;;;26.10;87.30;;;;;;5056929;28;20493;-78
2022/05/20 09:41:26;;;;;;;12.63;4.67;;;26.00;86.50;;;;;;5061036;28;20447;-78
2022/05/20 09:44:13;;;;;;;11.90;5.17;;;26.10;88.60;;;;;;5059222;28;20524;-78
2022/05/20 09:47:05;;;;;;;9.67;5.33;;;26.20;86.00;;;;;;5057424;28;20538;-75
2022/05/20 09:49:55;;;;;;;11.20;4.57;;;26.30;86.10;;;;;;5044626;28;20606;-75
2022/05/20 09:52:56;;;;;;;11.43;5.40;;;26.30;85.00;;;;;;5055324;28;20462;-75
2022/05/20 09:55:44;;;;;;;13.57;4.83;;;26.40;77.00;;;;;;5053573;28;20447;-75
2022/05/20 09:58:30;;;;;;;9.13;4.10;;;26.40;69.90;;;;;;5052311;28;20462;-76
2022/05/20 10:01:20;;;;;;;5.67;4.30;;;26.50;69.80;;;;;;5052318;28;20460;-76
2022/05/20 10:04:10;;;;;;;6.80;4.17;;;26.60;68.40;;;;;;5056028;28;20434;-76
2022/05/20 10:07:00;;;;;;;6.67;4.17;;;26.60;68.60;;;;;;5062603;28;21175;-76
2022/05/20 10:09:53;;;;;;;8.23;4.77;;;26.70;69.10;;;;;;5062635;28;20433;-76
2022/05/20 10:12:42;;;;;;;8.03;4.33;;;26.70;70.70;;;;;;5054483;28;20832;-75
2022/05/20 10:15:33;;;;;;;10.77;4.13;;;26.70;67.10;;;;;;5066503;28;20601;-76
2022/05/20 10:18:29;;;;;;;7.87;4.30;;;26.70;64.20;;;;;;5054512;28;20475;-76
2022/05/20 10:21:37;;;;;;;5.40;3.43;;;26.80;61.60;;;;;;5040935;28;20456;-76
2022/05/20 10:24:41;;;;;;;12.20;3.80;;;27.00;62.50;;;;;;5062701;28;21059;-75
2022/05/20 10:27:32;;;;;;;9.53;4.40;;;27.00;60.20;;;;;;5059619;28;20587;-76
2022/05/20 10:33:28;;;;;;;11.97;4.13;;;27.10;62.00;;;;;;5054789;28;20580;-76
2022/05/20 10:36:21;;;;;;;6.30;3.63;;;27.30;62.20;;;;;;5055102;28;20516;-75
2022/05/20 10:39:15;;;;;;;8.67;4.40;;;27.40;59.00;;;;;;5057651;28;20999;-76
2022/05/20 10:42:18;;;;;;;10.20;5.10;;;27.40;56.70;;;;;;5052012;28;20493;-76
2022/05/20 10:48:41;;;;;;;6.50;4.70;;;27.50;58.70;;;;;;5060347;28;21002;-76
2022/05/20 10:51:46;;;;;;;9.27;5.10;;;27.40;60.40;;;;;;5049275;28;20447;-75
2022/05/20 10:54:50;;;;;;;11.93;5.13;;;27.50;61.40;;;;;;5061235;28;20442;-76
2022/05/20 10:58:11;;;;;;;7.47;4.67;;;27.60;65.20;;;;;;5056448;28;20470;-76
2022/05/20 11:01:01;;;;;;;10.67;7.80;;;27.70;60.60;;;;;;5046967;28;20447;-76
2022/05/20 11:04:16;;;;;;;13.13;5.00;;;27.90;62.50;;;;;;5060089;28;20528;-76
2022/05/20 11:07:28;;;;;;;16.27;5.13;;;28.00;64.30;;;;;;5061108;28;20473;-76
2022/05/20 11:10:39;;;;;;;9.00;4.50;;;28.20;59.70;;;;;;5045116;28;20455;-76
2022/05/20 11:13:41;;;;;;;9.87;4.90;;;28.40;54.90;;;;;;5057144;28;20473;-76
2022/05/20 11:16:43;;;;;;;9.13;3.97;;;28.50;58.50;;;;;;5049713;28;20611;-76
2022/05/20 11:19:57;;;;;;;12.60;4.83;;;28.50;57.20;;;;;;5048538;28;20482;-76
2022/05/20 11:23:09;;;;;;;13.70;5.33;;;28.30;55.60;;;;;;5053942;28;20448;-75
2022/05/20 11:26:16;;;;;;;13.20;4.57;;;28.10;54.80;;;;;;5064313;28;20435;-75
2022/05/20 11:29:23;;;;;;;10.40;4.70;;;27.90;57.40;;;;;;5055198;28;20449;-75
2022/05/20 11:32:11;;;;;;;11.83;5.07;;;27.70;59.90;;;;;;5052090;28;20570;-75
2022/05/20 11:35:14;;;;;;;9.03;4.40;;;27.60;65.80;;;;;;5034145;28;20416;-76
2022/05/20 11:38:35;;;;;;;9.47;4.87;;;27.60;64.90;;;;;;5060140;28;20525;-75
2022/05/20 11:41:35;;;;;;;7.73;5.20;;;27.50;63.40;;;;;;5044740;28;20442;-75
2022/05/20 11:44:43;;;;;;;14.43;5.80;;;27.40;61.40;;;;;;5058871;28;20955;-75
2022/05/20 11:47:51;;;;;;;10.53;4.73;;;27.40;62.00;;;;;;5052893;28;20523;-76
2022/05/20 11:51:12;;;;;;;13.67;4.90;;;27.40;64.50;;;;;;5046570;28;20454;-78
2022/05/20 11:54:03;;;;;;;14.30;5.23;;;27.60;60.50;;;;;;5050377;28;20980;-75
2022/05/20 11:56:54;;;;;;;19.20;5.50;;;27.70;55.90;;;;;;5060717;28;20552;-80
2022/05/20 11:59:46;;;;;;;12.23;5.20;;;28.00;57.40;;;;;;5053500;28;20489;-79
2022/05/20 12:02:37;;;;;;;13.83;4.23;;;28.20;55.00;;;;;;5059534;28;20470;-80
2022/05/20 12:05:26;;;;;;;10.53;5.47;;;28.50;55.90;;;;;;5062865;28;20951;-79
2022/05/20 12:08:46;;;;;;;13.80;5.27;;;28.60;51.70;;;;;;5057302;28;20478;-80
2022/05/20 12:11:35;;;;;;;8.30;5.13;;;28.80;54.10;;;;;;5052704;28;20492;-79
2022/05/20 12:14:22;;;;;;;11.33;5.87;;;29.00;50.60;;;;;;5049964;28;20462;-79
2022/05/20 12:17:10;;;;;;;8.47;4.97;;;29.10;48.90;;;;;;5059518;28;20483;-79
2022/05/20 12:26:48;;;;;;;7.87;4.93;;;29.40;49.60;;;;;;5054982;28;20475;-78
2022/05/20 12:30:05;;;;;;;9.40;4.80;;;29.40;50.20;;;;;;5046088;28;20447;-78
2022/05/20 12:32:53;;;;;;;10.60;4.40;;;29.40;49.00;;;;;;5047753;28;20472;-76
2022/05/20 12:35:39;;;;;;;13.83;5.47;;;29.60;48.70;;;;;;5043007;28;20983;-77
2022/05/20 12:38:26;;;;;;;7.83;4.53;;;29.70;46.70;;;;;;5059865;28;21025;-76
2022/05/20 12:41:21;;;;;;;11.30;5.23;;;29.80;44.10;;;;;;5054043;28;20443;-76
2022/05/20 12:44:31;;;;;;;8.83;4.70;;;29.80;42.40;;;;;;5043240;28;21150;-77
2022/05/20 12:47:27;;;;;;;7.53;4.40;;;29.70;42.70;;;;;;5053197;28;20467;-77
2022/05/20 12:50:25;;;;;;;9.63;4.53;;;29.90;44.50;;;;;;5053202;28;20454;-77
2022/05/20 12:53:14;;;;;;;19.17;4.67;;;30.10;43.30;;;;;;5052730;28;20544;-77
2022/05/20 12:56:00;;;;;;;9.20;4.13;;;30.20;44.20;;;;;;5052251;28;20474;-77
2022/05/20 12:58:46;;;;;;;9.60;5.07;;;30.30;40.30;;;;;;5059129;28;20489;-77
2022/05/20 13:01:32;;;;;;;9.50;4.60;;;30.40;38.10;;;;;;5054524;28;20464;-76
2022/05/20 13:04:19;;;;;;;5.73;4.50;;;30.40;42.50;;;;;;5046560;28;20467;-77
2022/05/20 13:07:11;;;;;;;15.57;5.33;;;30.40;40.40;;;;;;5057744;28;20517;-76
2022/05/20 13:09:57;;;;;;;6.27;5.00;;;30.60;40.90;;;;;;5054412;28;20447;-77
2022/05/20 13:12:49;;;;;;;9.63;4.70;;;30.60;38.50;;;;;;5058362;28;20825;-77
2022/05/20 13:15:40;;;;;;;8.90;4.90;;;30.50;41.60;;;;;;5052262;28;20809;-77
2022/05/20 13:18:29;;;;;;;9.00;5.00;;;30.30;41.90;;;;;;5053499;28;20713;-77
2022/05/20 13:21:17;;;;;;;9.73;4.93;;;30.00;39.10;;;;;;5053099;28;20438;-77
2022/05/20 13:24:15;;;;;;;5.70;4.60;;;29.70;41.80;;;;;;5041870;28;20445;-78
2022/05/20 13:27:06;;;;;;;6.33;4.60;;;29.70;45.10;;;;;;5058431;28;20471;-78
2022/05/20 13:29:53;;;;;;;9.00;5.37;;;29.60;44.10;;;;;;5062610;28;20448;-77
2022/05/20 13:32:39;;;;;;;6.27;5.13;;;29.40;45.80;;;;;;5048229;28;20451;-77
2022/05/20 13:35:25;;;;;;;10.67;5.60;;;29.10;46.80;;;;;;5047137;28;20474;-78
2022/05/20 13:38:12;;;;;;;8.80;5.20;;;29.00;50.10;;;;;;5056825;28;20517;-77
2022/05/20 13:40:59;;;;;;;13.60;5.53;;;28.80;49.90;;;;;;5060699;28;20458;-78
2022/05/20 13:43:45;;;;;;;8.27;5.03;;;28.80;49.10;;;;;;5046075;28;20443;-77
2022/05/20 13:49:38;;;;;;;12.93;5.80;;;28.90;55.00;;;;;;5052037;28;20598;-83
2022/05/20 13:52:25;;;;;;;13.63;6.00;;;28.90;50.00;;;;;;5057213;28;20486;-77
2022/05/20 13:55:14;;;;;;;10.93;6.43;;;28.80;51.90;;;;;;5053492;28;21154;-78
2022/05/20 13:58:01;;;;;;;11.37;5.40;;;28.80;53.60;;;;;;5063907;28;20470;-78
2022/05/20 14:00:50;;;;;;;9.80;5.70;;;28.70;53.10;;;;;;5054632;28;20436;-77
2022/05/20 14:03:41;;;;;;;9.30;5.47;;;28.50;54.40;;;;;;5051225;28;20442;-77
2022/05/20 14:06:29;;;;;;;9.70;5.50;;;28.40;58.40;;;;;;5058727;28;20501;-77
2022/05/20 14:09:15;;;;;;;12.67;5.07;;;28.30;63.40;;;;;;5063975;28;20451;-77
2022/05/20 14:12:01;;;;;;;10.60;5.10;;;28.10;76.90;;;;;;5059865;28;20488;-77
2022/05/20 14:14:53;;;;;;;15.80;5.10;;;27.90;86.20;;;;;;5044084;28;20453;-77
2022/05/20 14:17:43;;;;;;;11.17;5.90;;;27.70;93.20;;;;;;5054620;28;20522;-75
2022/05/20 14:20:32;;;;;;;11.40;6.27;;;27.50;98.20;;;;;;5052711;28;20478;-75
2022/05/20 14:23:20;;;;;;;23.43;7.60;;;27.40;98.40;;;;;;5044405;28;20459;-76
2022/05/20 14:26:12;;;;;;;8.63;5.57;;;27.30;99.80;;;;;;5051171;28;20471;-76
2022/05/20 14:29:07;;;;;;;10.03;6.70;;;27.20;99.90;;;;;;5049634;28;20442;-75
2022/05/20 14:31:58;;;;;;;10.87;5.50;;;27.20;99.90;;;;;;5048724;28;20444;-77
2022/05/20 14:34:46;;;;;;;9.57;5.97;;;27.10;99.90;;;;;;5051065;28;20460;-76
2022/05/20 14:37:34;;;;;;;8.10;5.30;;;26.90;99.90;;;;;;5052337;28;20463;-76
2022/05/20 14:40:20;;;;;;;12.77;5.70;;;26.70;99.90;;;;;;5060016;28;20632;-76
2022/05/20 14:43:07;;;;;;;13.30;6.50;;;26.50;99.90;;;;;;5043886;28;20803;-77
2022/05/20 14:45:59;;;;;;;12.50;5.60;;;26.40;99.90;;;;;;5057243;28;20451;-76
2022/05/20 14:48:46;;;;;;;9.03;5.17;;;26.30;99.90;;;;;;5059568;28;20435;-77
2022/05/20 14:51:32;;;;;;;9.27;5.80;;;26.40;99.90;;;;;;5052759;28;20512;-76
2022/05/20 14:54:17;;;;;;;15.73;6.27;;;26.40;99.90;;;;;;5051609;28;20439;-76
2022/05/20 14:57:25;;;;;;;9.93;6.10;;;26.30;99.90;;;;;;5055545;28;20502;-77
2022/05/20 15:00:18;;;;;;;9.93;6.63;;;26.30;99.90;;;;;;5044612;28;20829;-77
2022/05/20 15:03:06;;;;;;;12.33;6.00;;;26.30;99.90;;;;;;5035895;28;20526;-77
2022/05/20 15:05:54;;;;;;;10.10;6.27;;;26.20;99.90;;;;;;5052166;28;20529;-77
2022/05/20 15:08:40;;;;;;;10.87;5.63;;;26.10;99.90;;;;;;5060799;28;20526;-77
2022/05/20 15:11:29;;;;;;;8.23;5.20;;;26.10;99.90;;;;;;5050066;28;20443;-77
2022/05/20 15:14:14;;;;;;;9.20;4.30;;;26.20;99.90;;;;;;5050234;28;20452;-77
2022/05/20 15:17:00;;;;;;;10.43;5.03;;;26.20;90.90;;;;;;5055036;28;20478;-77
2022/05/20 15:19:46;;;;;;;9.73;5.37;;;26.30;90.00;;;;;;5050578;28;20545;-77